sensor_id;sensor_type;location;lat;lon;timestamp;P1;durP1;ratioP1;P2;durP2;ratioP2
31734;SDS011;18313;48.518;9.124;2023-06-05T00:02:11;6.13;;;2.70;;
31734;SDS011;18313;48.518;9.124;2023-06-05T00:04:39;4.72;;;2.60;;
31734;SDS011;18313;48.518;9.124;2023-06-05T00:07:06;4.40;;;2.70;;
31734;SDS011;18313;48.518;9.124;2023-06-05T00:09:33;6.30;;;2.72;;
31734;SDS011;18313;48.518;9.124;2023-06-05T00:12:00;4.88;;;2.42;;
31734;SDS011;18313;48.518;9.124;2023-06-05T00:14:27;6.30;;;2.80;;
31734;SDS011;18313;48.518;9.124;2023-06-05T00:16:54;6.75;;;2.75;;
31734;SDS011;18313;48.518;9.124;2023-06-05T00:19:23;5.78;;;2.90;;
31734;SDS011;18313;48.518;9.124;2023-06-05T00:21:50;4.22;;;2.55;;
31734;SDS011;18313;48.518;9.124;2023-06-05T00:24:19;4.97;;;2.60;;
31734;SDS011;18313;48.518;9.124;2023-06-05T00:26:46;6.38;;;2.95;;
31734;SDS011;18313;48.518;9.124;2023-06-05T00:29:13;5.45;;;2.80;;
31734;SDS011;18313;48.518;9.124;2023-06-05T00:31:44;4.97;;;2.85;;
31734;SDS011;18313;48.518;9.124;2023-06-05T00:34:12;4.53;;;2.67;;
31734;SDS011;18313;48.518;9.124;2023-06-05T00:36:40;4.32;;;2.78;;
31734;SDS011;18313;48.518;9.124;2023-06-05T00:39:07;5.75;;;2.83;;
31734;SDS011;18313;48.518;9.124;2023-06-05T00:41:35;5.65;;;2.83;;
31734;SDS011;18313;48.518;9.124;2023-06-05T00:44:08;4.50;;;2.90;;
31734;SDS011;18313;48.518;9.124;2023-06-05T00:46:35;5.38;;;3.28;;
31734;SDS011;18313;48.518;9.124;2023-06-05T00:49:03;6.70;;;2.97;;
31734;SDS011;18313;48.518;9.124;2023-06-05T00:51:30;7.50;;;3.03;;
31734;SDS011;18313;48.518;9.124;2023-06-05T00:53:58;5.65;;;3.38;;
31734;SDS011;18313;48.518;9.124;2023-06-05T00:56:25;5.82;;;3.20;;
31734;SDS011;18313;48.518;9.124;2023-06-05T00:58:52;5.85;;;3.15;;
31734;SDS011;18313;48.518;9.124;2023-06-05T01:01:21;5.03;;;3.10;;
31734;SDS011;18313;48.518;9.124;2023-06-05T01:03:51;8.63;;;3.72;;
31734;SDS011;18313;48.518;9.124;2023-06-05T01:06:19;9.13;;;3.88;;
31734;SDS011;18313;48.518;9.124;2023-06-05T01:08:46;9.13;;;3.45;;
31734;SDS011;18313;48.518;9.124;2023-06-05T01:11:28;10.75;;;4.30;;
31734;SDS011;18313;48.518;9.124;2023-06-05T01:14:18;11.82;;;4.65;;
31734;SDS011;18313;48.518;9.124;2023-06-05T01:16:57;12.75;;;4.60;;
31734;SDS011;18313;48.518;9.124;2023-06-05T01:19:28;9.77;;;4.28;;
31734;SDS011;18313;48.518;9.124;2023-06-05T01:21:57;7.38;;;4.10;;
31734;SDS011;18313;48.518;9.124;2023-06-05T01:24:25;7.70;;;3.85;;
31734;SDS011;18313;48.518;9.124;2023-06-05T01:32:49;6.35;;;3.70;;
31734;SDS011;18313;48.518;9.124;2023-06-05T01:35:20;6.72;;;3.50;;
31734;SDS011;18313;48.518;9.124;2023-06-05T01:37:54;7.57;;;3.97;;
31734;SDS011;18313;48.518;9.124;2023-06-05T01:40:23;7.13;;;3.70;;
31734;SDS011;18313;48.518;9.124;2023-06-05T01:42:52;6.47;;;3.60;;
31734;SDS011;18313;48.518;9.124;2023-06-05T01:45:21;7.85;;;3.83;;
31734;SDS011;18313;48.518;9.124;2023-06-05T01:47:49;8.52;;;3.90;;
31734;SDS011;18313;48.518;9.124;2023-06-05T01:50:18;8.90;;;4.07;;
31734;SDS011;18313;48.518;9.124;2023-06-05T01:52:46;8.63;;;3.83;;
31734;SDS011;18313;48.518;9.124;2023-06-05T01:55:15;8.15;;;3.80;;
31734;SDS011;18313;48.518;9.124;2023-06-05T01:57:44;9.40;;;4.00;;
31734;SDS011;18313;48.518;9.124;2023-06-05T02:00:12;10.15;;;3.90;;
31734;SDS011;18313;48.518;9.124;2023-06-05T02:02:40;7.07;;;3.67;;
31734;SDS011;18313;48.518;9.124;2023-06-05T02:05:08;6.65;;;3.47;;
31734;SDS011;18313;48.518;9.124;2023-06-05T02:07:38;6.88;;;3.50;;
31734;SDS011;18313;48.518;9.124;2023-06-05T02:10:06;7.18;;;3.47;;
31734;SDS011;18313;48.518;9.124;2023-06-05T02:12:47;6.95;;;3.47;;
31734;SDS011;18313;48.518;9.124;2023-06-05T02:15:14;6.05;;;3.13;;
31734;SDS011;18313;48.518;9.124;2023-06-05T02:17:42;5.60;;;3.17;;
31734;SDS011;18313;48.518;9.124;2023-06-05T02:20:29;6.28;;;3.33;;
31734;SDS011;18313;48.518;9.124;2023-06-05T02:22:57;6.45;;;3.35;;
31734;SDS011;18313;48.518;9.124;2023-06-05T02:25:25;4.82;;;3.10;;
31734;SDS011;18313;48.518;9.124;2023-06-05T02:27:53;6.90;;;3.53;;
31734;SDS011;18313;48.518;9.124;2023-06-05T02:30:22;8.15;;;3.83;;
31734;SDS011;18313;48.518;9.124;2023-06-05T02:32:50;7.20;;;3.95;;
31734;SDS011;18313;48.518;9.124;2023-06-05T02:35:23;5.63;;;3.50;;
31734;SDS011;18313;48.518;9.124;2023-06-05T02:37:50;7.85;;;3.60;;
31734;SDS011;18313;48.518;9.124;2023-06-05T02:40:18;8.15;;;3.67;;
31734;SDS011;18313;48.518;9.124;2023-06-05T02:42:45;4.95;;;3.03;;
31734;SDS011;18313;48.518;9.124;2023-06-05T02:45:12;5.95;;;3.47;;
31734;SDS011;18313;48.518;9.124;2023-06-05T02:47:39;5.75;;;3.30;;
31734;SDS011;18313;48.518;9.124;2023-06-05T02:50:06;6.18;;;3.08;;
31734;SDS011;18313;48.518;9.124;2023-06-05T02:52:34;5.75;;;3.42;;
31734;SDS011;18313;48.518;9.124;2023-06-05T02:55:02;6.65;;;3.40;;
31734;SDS011;18313;48.518;9.124;2023-06-05T02:57:30;6.22;;;3.63;;
31734;SDS011;18313;48.518;9.124;2023-06-05T02:59:57;6.13;;;3.55;;
31734;SDS011;18313;48.518;9.124;2023-06-05T03:02:24;5.90;;;3.75;;
31734;SDS011;18313;48.518;9.124;2023-06-05T03:04:54;6.72;;;3.22;;
31734;SDS011;18313;48.518;9.124;2023-06-05T03:07:22;6.93;;;3.90;;
31734;SDS011;18313;48.518;9.124;2023-06-05T03:09:49;7.05;;;3.60;;
31734;SDS011;18313;48.518;9.124;2023-06-05T03:12:16;6.18;;;3.63;;
31734;SDS011;18313;48.518;9.124;2023-06-05T03:14:43;5.40;;;3.47;;
31734;SDS011;18313;48.518;9.124;2023-06-05T03:17:10;5.60;;;3.28;;
31734;SDS011;18313;48.518;9.124;2023-06-05T03:19:37;6.15;;;3.72;;
31734;SDS011;18313;48.518;9.124;2023-06-05T03:22:04;6.40;;;3.45;;
31734;SDS011;18313;48.518;9.124;2023-06-05T03:24:31;6.80;;;3.72;;
31734;SDS011;18313;48.518;9.124;2023-06-05T03:26:58;6.95;;;4.05;;
31734;SDS011;18313;48.518;9.124;2023-06-05T03:29:26;6.55;;;3.50;;
31734;SDS011;18313;48.518;9.124;2023-06-05T03:31:53;6.05;;;3.80;;
31734;SDS011;18313;48.518;9.124;2023-06-05T03:34:20;6.35;;;3.72;;
31734;SDS011;18313;48.518;9.124;2023-06-05T03:36:52;5.45;;;3.50;;
31734;SDS011;18313;48.518;9.124;2023-06-05T03:39:19;7.05;;;3.55;;
31734;SDS011;18313;48.518;9.124;2023-06-05T03:41:47;6.15;;;3.42;;
31734;SDS011;18313;48.518;9.124;2023-06-05T03:44:14;6.68;;;3.40;;
31734;SDS011;18313;48.518;9.124;2023-06-05T03:46:41;6.75;;;3.60;;
31734;SDS011;18313;48.518;9.124;2023-06-05T03:49:08;5.00;;;3.63;;
31734;SDS011;18313;48.518;9.124;2023-06-05T03:51:36;9.27;;;3.45;;
31734;SDS011;18313;48.518;9.124;2023-06-05T03:54:03;7.13;;;3.85;;
31734;SDS011;18313;48.518;9.124;2023-06-05T03:56:32;7.40;;;3.83;;
31734;SDS011;18313;48.518;9.124;2023-06-05T03:59:02;8.75;;;3.50;;
31734;SDS011;18313;48.518;9.124;2023-06-05T04:01:35;5.97;;;3.70;;
31734;SDS011;18313;48.518;9.124;2023-06-05T04:04:06;5.30;;;3.45;;
31734;SDS011;18313;48.518;9.124;2023-06-05T04:06:35;6.07;;;3.53;;
31734;SDS011;18313;48.518;9.124;2023-06-05T04:09:03;7.70;;;3.72;;
31734;SDS011;18313;48.518;9.124;2023-06-05T04:11:39;6.55;;;3.63;;
31734;SDS011;18313;48.518;9.124;2023-06-05T04:14:08;5.10;;;2.97;;
31734;SDS011;18313;48.518;9.124;2023-06-05T04:16:36;6.82;;;3.67;;
31734;SDS011;18313;48.518;9.124;2023-06-05T04:19:09;5.50;;;3.40;;
31734;SDS011;18313;48.518;9.124;2023-06-05T04:21:38;6.22;;;3.72;;
31734;SDS011;18313;48.518;9.124;2023-06-05T04:24:06;5.82;;;3.67;;
31734;SDS011;18313;48.518;9.124;2023-06-05T04:26:36;6.38;;;3.35;;
31734;SDS011;18313;48.518;9.124;2023-06-05T04:29:04;6.32;;;3.47;;
31734;SDS011;18313;48.518;9.124;2023-06-05T04:31:40;8.85;;;4.00;;
31734;SDS011;18313;48.518;9.124;2023-06-05T04:34:08;5.82;;;3.58;;
31734;SDS011;18313;48.518;9.124;2023-06-05T04:36:35;7.28;;;3.63;;
31734;SDS011;18313;48.518;9.124;2023-06-05T04:39:03;5.72;;;3.33;;
31734;SDS011;18313;48.518;9.124;2023-06-05T04:41:31;7.93;;;3.45;;
31734;SDS011;18313;48.518;9.124;2023-06-05T04:43:59;6.32;;;3.50;;
31734;SDS011;18313;48.518;9.124;2023-06-05T04:46:29;7.47;;;3.47;;
31734;SDS011;18313;48.518;9.124;2023-06-05T04:48:56;11.20;;;3.45;;
31734;SDS011;18313;48.518;9.124;2023-06-05T04:51:24;8.02;;;3.88;;
31734;SDS011;18313;48.518;9.124;2023-06-05T04:53:51;9.18;;;3.30;;
31734;SDS011;18313;48.518;9.124;2023-06-05T04:56:19;7.30;;;3.60;;
31734;SDS011;18313;48.518;9.124;2023-06-05T04:58:48;5.40;;;3.22;;
31734;SDS011;18313;48.518;9.124;2023-06-05T05:01:16;8.45;;;3.60;;
31734;SDS011;18313;48.518;9.124;2023-06-05T05:03:45;7.07;;;3.22;;
31734;SDS011;18313;48.518;9.124;2023-06-05T05:06:16;5.53;;;3.30;;
31734;SDS011;18313;48.518;9.124;2023-06-05T05:08:44;5.90;;;3.45;;
31734;SDS011;18313;48.518;9.124;2023-06-05T05:11:13;7.00;;;4.00;;
31734;SDS011;18313;48.518;9.124;2023-06-05T05:13:40;6.70;;;3.95;;
31734;SDS011;18313;48.518;9.124;2023-06-05T05:16:08;7.93;;;3.92;;
31734;SDS011;18313;48.518;9.124;2023-06-05T05:18:37;7.68;;;4.10;;
31734;SDS011;18313;48.518;9.124;2023-06-05T05:21:07;8.02;;;4.40;;
31734;SDS011;18313;48.518;9.124;2023-06-05T05:23:34;8.30;;;4.13;;
31734;SDS011;18313;48.518;9.124;2023-06-05T05:26:02;6.63;;;4.15;;
31734;SDS011;18313;48.518;9.124;2023-06-05T05:28:30;7.22;;;4.15;;
31734;SDS011;18313;48.518;9.124;2023-06-05T05:30:57;6.05;;;3.55;;
31734;SDS011;18313;48.518;9.124;2023-06-05T05:33:25;8.93;;;3.70;;
31734;SDS011;18313;48.518;9.124;2023-06-05T05:35:52;7.00;;;3.85;;
31734;SDS011;18313;48.518;9.124;2023-06-05T05:38:19;5.97;;;3.60;;
31734;SDS011;18313;48.518;9.124;2023-06-05T05:40:49;6.38;;;3.70;;
31734;SDS011;18313;48.518;9.124;2023-06-05T05:43:19;5.72;;;3.30;;
31734;SDS011;18313;48.518;9.124;2023-06-05T05:45:46;6.15;;;3.17;;
31734;SDS011;18313;48.518;9.124;2023-06-05T05:48:13;5.18;;;3.40;;
31734;SDS011;18313;48.518;9.124;2023-06-05T05:50:40;6.65;;;3.30;;
31734;SDS011;18313;48.518;9.124;2023-06-05T05:53:07;5.53;;;3.45;;
31734;SDS011;18313;48.518;9.124;2023-06-05T05:55:34;8.85;;;3.80;;
31734;SDS011;18313;48.518;9.124;2023-06-05T05:58:02;7.60;;;3.33;;
31734;SDS011;18313;48.518;9.124;2023-06-05T06:00:29;7.45;;;3.70;;
31734;SDS011;18313;48.518;9.124;2023-06-05T06:02:56;6.50;;;3.03;;
31734;SDS011;18313;48.518;9.124;2023-06-05T06:05:27;7.18;;;3.35;;
31734;SDS011;18313;48.518;9.124;2023-06-05T06:10:34;7.40;;;3.53;;
31734;SDS011;18313;48.518;9.124;2023-06-05T06:13:05;5.72;;;3.20;;
31734;SDS011;18313;48.518;9.124;2023-06-05T06:15:33;8.77;;;3.47;;
31734;SDS011;18313;48.518;9.124;2023-06-05T06:18:10;5.80;;;3.25;;
31734;SDS011;18313;48.518;9.124;2023-06-05T06:20:41;7.68;;;3.40;;
31734;SDS011;18313;48.518;9.124;2023-06-05T06:23:08;9.38;;;3.53;;
31734;SDS011;18313;48.518;9.124;2023-06-05T06:25:41;6.32;;;3.20;;
31734;SDS011;18313;48.518;9.124;2023-06-05T06:28:11;6.90;;;3.30;;
31734;SDS011;18313;48.518;9.124;2023-06-05T06:30:40;7.72;;;3.38;;
31734;SDS011;18313;48.518;9.124;2023-06-05T06:33:19;6.00;;;3.10;;
31734;SDS011;18313;48.518;9.124;2023-06-05T06:35:57;8.13;;;3.33;;
31734;SDS011;18313;48.518;9.124;2023-06-05T06:38:26;9.27;;;3.38;;
31734;SDS011;18313;48.518;9.124;2023-06-05T06:40:57;8.23;;;3.40;;
31734;SDS011;18313;48.518;9.124;2023-06-05T06:43:25;7.13;;;3.28;;
31734;SDS011;18313;48.518;9.124;2023-06-05T06:45:55;7.38;;;3.70;;
31734;SDS011;18313;48.518;9.124;2023-06-05T06:48:23;6.30;;;3.30;;
31734;SDS011;18313;48.518;9.124;2023-06-05T06:50:55;6.70;;;3.70;;
31734;SDS011;18313;48.518;9.124;2023-06-05T06:53:22;5.82;;;3.65;;
31734;SDS011;18313;48.518;9.124;2023-06-05T06:55:51;7.07;;;3.38;;
31734;SDS011;18313;48.518;9.124;2023-06-05T06:58:18;6.80;;;3.33;;
31734;SDS011;18313;48.518;9.124;2023-06-05T07:00:46;7.50;;;3.30;;
31734;SDS011;18313;48.518;9.124;2023-06-05T07:03:16;9.93;;;3.53;;
31734;SDS011;18313;48.518;9.124;2023-06-05T07:05:44;5.97;;;3.50;;
31734;SDS011;18313;48.518;9.124;2023-06-05T07:08:11;5.85;;;3.70;;
31734;SDS011;18313;48.518;9.124;2023-06-05T07:10:39;5.78;;;3.42;;
31734;SDS011;18313;48.518;9.124;2023-06-05T07:13:06;9.45;;;3.25;;
31734;SDS011;18313;48.518;9.124;2023-06-05T07:15:33;7.68;;;3.60;;
31734;SDS011;18313;48.518;9.124;2023-06-05T07:18:00;7.40;;;3.60;;
31734;SDS011;18313;48.518;9.124;2023-06-05T07:20:28;6.60;;;3.28;;
31734;SDS011;18313;48.518;9.124;2023-06-05T07:22:55;7.45;;;3.53;;
31734;SDS011;18313;48.518;9.124;2023-06-05T07:25:23;6.15;;;3.38;;
31734;SDS011;18313;48.518;9.124;2023-06-05T07:27:51;11.38;;;3.60;;
31734;SDS011;18313;48.518;9.124;2023-06-05T07:30:19;5.13;;;3.35;;
31734;SDS011;18313;48.518;9.124;2023-06-05T07:32:46;5.88;;;3.42;;
31734;SDS011;18313;48.518;9.124;2023-06-05T07:35:14;6.63;;;3.13;;
31734;SDS011;18313;48.518;9.124;2023-06-05T07:37:41;7.47;;;3.38;;
31734;SDS011;18313;48.518;9.124;2023-06-05T07:40:08;8.25;;;3.10;;
31734;SDS011;18313;48.518;9.124;2023-06-05T07:42:36;6.85;;;3.50;;
31734;SDS011;18313;48.518;9.124;2023-06-05T07:45:04;7.53;;;3.30;;
31734;SDS011;18313;48.518;9.124;2023-06-05T07:47:32;7.47;;;3.70;;
31734;SDS011;18313;48.518;9.124;2023-06-05T07:50:00;7.93;;;3.28;;
31734;SDS011;18313;48.518;9.124;2023-06-05T07:52:30;12.05;;;3.95;;
31734;SDS011;18313;48.518;9.124;2023-06-05T07:54:58;8.45;;;3.17;;
31734;SDS011;18313;48.518;9.124;2023-06-05T07:57:25;4.78;;;3.03;;
31734;SDS011;18313;48.518;9.124;2023-06-05T07:59:54;4.97;;;2.85;;
31734;SDS011;18313;48.518;9.124;2023-06-05T08:02:21;5.90;;;2.90;;
31734;SDS011;18313;48.518;9.124;2023-06-05T08:04:50;10.40;;;3.20;;
31734;SDS011;18313;48.518;9.124;2023-06-05T08:07:17;8.10;;;3.13;;
31734;SDS011;18313;48.518;9.124;2023-06-05T08:09:44;6.65;;;3.33;;
31734;SDS011;18313;48.518;9.124;2023-06-05T08:12:11;5.00;;;3.08;;
31734;SDS011;18313;48.518;9.124;2023-06-05T08:14:39;8.18;;;3.40;;
31734;SDS011;18313;48.518;9.124;2023-06-05T08:17:06;6.65;;;3.65;;
31734;SDS011;18313;48.518;9.124;2023-06-05T08:19:33;6.85;;;4.00;;
31734;SDS011;18313;48.518;9.124;2023-06-05T08:22:01;7.28;;;3.40;;
31734;SDS011;18313;48.518;9.124;2023-06-05T08:24:29;11.88;;;3.42;;
31734;SDS011;18313;48.518;9.124;2023-06-05T08:26:57;7.72;;;3.65;;
31734;SDS011;18313;48.518;9.124;2023-06-05T08:29:26;5.35;;;3.50;;
31734;SDS011;18313;48.518;9.124;2023-06-05T08:31:54;7.07;;;4.22;;
31734;SDS011;18313;48.518;9.124;2023-06-05T08:34:22;8.48;;;3.65;;
31734;SDS011;18313;48.518;9.124;2023-06-05T08:36:51;9.25;;;3.75;;
31734;SDS011;18313;48.518;9.124;2023-06-05T08:39:18;6.40;;;3.90;;
31734;SDS011;18313;48.518;9.124;2023-06-05T08:41:45;8.70;;;3.70;;
31734;SDS011;18313;48.518;9.124;2023-06-05T08:44:17;7.70;;;3.78;;
31734;SDS011;18313;48.518;9.124;2023-06-05T08:46:44;9.48;;;3.72;;
31734;SDS011;18313;48.518;9.124;2023-06-05T08:49:13;7.35;;;3.95;;
31734;SDS011;18313;48.518;9.124;2023-06-05T08:51:47;5.55;;;3.58;;
31734;SDS011;18313;48.518;9.124;2023-06-05T08:54:19;8.02;;;4.47;;
31734;SDS011;18313;48.518;9.124;2023-06-05T08:56:47;5.78;;;3.70;;
31734;SDS011;18313;48.518;9.124;2023-06-05T08:59:16;5.40;;;3.63;;
31734;SDS011;18313;48.518;9.124;2023-06-05T09:01:47;13.20;;;4.15;;
31734;SDS011;18313;48.518;9.124;2023-06-05T09:04:15;9.38;;;4.25;;
31734;SDS011;18313;48.518;9.124;2023-06-05T09:06:45;7.22;;;3.90;;
31734;SDS011;18313;48.518;9.124;2023-06-05T09:09:18;6.85;;;3.67;;
31734;SDS011;18313;48.518;9.124;2023-06-05T09:11:46;11.70;;;4.40;;
31734;SDS011;18313;48.518;9.124;2023-06-05T09:14:13;9.38;;;3.97;;
31734;SDS011;18313;48.518;9.124;2023-06-05T09:16:51;12.65;;;4.68;;
31734;SDS011;18313;48.518;9.124;2023-06-05T09:19:18;10.50;;;4.05;;
31734;SDS011;18313;48.518;9.124;2023-06-05T09:21:52;6.78;;;3.80;;
31734;SDS011;18313;48.518;9.124;2023-06-05T09:24:21;6.43;;;3.85;;
31734;SDS011;18313;48.518;9.124;2023-06-05T09:27:01;9.85;;;4.00;;
31734;SDS011;18313;48.518;9.124;2023-06-05T09:29:29;8.65;;;3.80;;
31734;SDS011;18313;48.518;9.124;2023-06-05T09:32:01;7.65;;;4.00;;
31734;SDS011;18313;48.518;9.124;2023-06-05T09:34:31;6.97;;;3.97;;
31734;SDS011;18313;48.518;9.124;2023-06-05T09:37:03;7.85;;;3.70;;
31734;SDS011;18313;48.518;9.124;2023-06-05T09:39:38;6.85;;;4.18;;
31734;SDS011;18313;48.518;9.124;2023-06-05T09:42:06;7.80;;;4.13;;
31734;SDS011;18313;48.518;9.124;2023-06-05T09:44:35;5.68;;;4.00;;
31734;SDS011;18313;48.518;9.124;2023-06-05T09:47:03;6.85;;;4.10;;
31734;SDS011;18313;48.518;9.124;2023-06-05T09:49:33;6.55;;;3.67;;
31734;SDS011;18313;48.518;9.124;2023-06-05T09:52:15;9.05;;;3.95;;
31734;SDS011;18313;48.518;9.124;2023-06-05T09:54:44;6.78;;;3.75;;
31734;SDS011;18313;48.518;9.124;2023-06-05T09:57:12;6.25;;;3.80;;
31734;SDS011;18313;48.518;9.124;2023-06-05T09:59:51;7.15;;;3.78;;
31734;SDS011;18313;48.518;9.124;2023-06-05T10:02:23;14.45;;;3.90;;
31734;SDS011;18313;48.518;9.124;2023-06-05T10:04:54;6.78;;;3.70;;
31734;SDS011;18313;48.518;9.124;2023-06-05T10:07:27;5.88;;;3.50;;
31734;SDS011;18313;48.518;9.124;2023-06-05T10:09:54;7.47;;;3.60;;
31734;SDS011;18313;48.518;9.124;2023-06-05T10:12:22;5.80;;;3.60;;
31734;SDS011;18313;48.518;9.124;2023-06-05T10:14:50;6.38;;;3.55;;
31734;SDS011;18313;48.518;9.124;2023-06-05T10:17:18;7.55;;;3.70;;
31734;SDS011;18313;48.518;9.124;2023-06-05T10:19:47;6.90;;;3.53;;
31734;SDS011;18313;48.518;9.124;2023-06-05T10:22:16;6.45;;;3.67;;
31734;SDS011;18313;48.518;9.124;2023-06-05T10:24:48;5.82;;;3.45;;
31734;SDS011;18313;48.518;9.124;2023-06-05T10:27:33;6.43;;;3.42;;
31734;SDS011;18313;48.518;9.124;2023-06-05T10:30:14;5.43;;;3.30;;
31734;SDS011;18313;48.518;9.124;2023-06-05T10:35:39;6.90;;;3.63;;
31734;SDS011;18313;48.518;9.124;2023-06-05T10:38:18;7.38;;;3.50;;
31734;SDS011;18313;48.518;9.124;2023-06-05T10:40:52;6.70;;;3.85;;
31734;SDS011;18313;48.518;9.124;2023-06-05T10:43:35;8.93;;;3.40;;
31734;SDS011;18313;48.518;9.124;2023-06-05T10:49:06;7.88;;;3.72;;
31734;SDS011;18313;48.518;9.124;2023-06-05T10:59:33;6.53;;;3.47;;
31734;SDS011;18313;48.518;9.124;2023-06-05T11:07:15;7.40;;;3.50;;
31734;SDS011;18313;48.518;9.124;2023-06-05T11:15:11;6.20;;;3.35;;
31734;SDS011;18313;48.518;9.124;2023-06-05T11:17:57;6.55;;;3.45;;
31734;SDS011;18313;48.518;9.124;2023-06-05T11:20:54;18.02;;;4.10;;
31734;SDS011;18313;48.518;9.124;2023-06-05T11:23:21;8.55;;;3.63;;
31734;SDS011;18313;48.518;9.124;2023-06-05T11:25:54;12.63;;;3.60;;
31734;SDS011;18313;48.518;9.124;2023-06-05T11:28:41;9.73;;;3.55;;
31734;SDS011;18313;48.518;9.124;2023-06-05T11:31:09;12.82;;;3.78;;
31734;SDS011;18313;48.518;9.124;2023-06-05T11:33:37;6.82;;;3.53;;
31734;SDS011;18313;48.518;9.124;2023-06-05T11:36:05;6.85;;;3.60;;
31734;SDS011;18313;48.518;9.124;2023-06-05T11:38:34;7.43;;;3.67;;
31734;SDS011;18313;48.518;9.124;2023-06-05T11:41:05;10.32;;;3.70;;
31734;SDS011;18313;48.518;9.124;2023-06-05T11:43:40;6.13;;;3.53;;
31734;SDS011;18313;48.518;9.124;2023-06-05T11:46:08;5.78;;;3.33;;
31734;SDS011;18313;48.518;9.124;2023-06-05T11:48:37;6.03;;;3.65;;
31734;SDS011;18313;48.518;9.124;2023-06-05T11:51:09;6.18;;;3.47;;
31734;SDS011;18313;48.518;9.124;2023-06-05T11:53:42;21.33;;;5.10;;
31734;SDS011;18313;48.518;9.124;2023-06-05T11:56:13;7.72;;;3.70;;
31734;SDS011;18313;48.518;9.124;2023-06-05T11:58:42;10.27;;;4.00;;
31734;SDS011;18313;48.518;9.124;2023-06-05T12:03:49;5.88;;;3.80;;
31734;SDS011;18313;48.518;9.124;2023-06-05T12:06:30;7.03;;;3.65;;
31734;SDS011;18313;48.518;9.124;2023-06-05T12:09:07;7.20;;;3.45;;
31734;SDS011;18313;48.518;9.124;2023-06-05T12:11:38;5.28;;;3.50;;
31734;SDS011;18313;48.518;9.124;2023-06-05T12:14:05;7.65;;;3.50;;
31734;SDS011;18313;48.518;9.124;2023-06-05T12:16:33;9.38;;;3.75;;
31734;SDS011;18313;48.518;9.124;2023-06-05T12:19:12;11.85;;;3.63;;
31734;SDS011;18313;48.518;9.124;2023-06-05T12:21:43;9.25;;;3.72;;
31734;SDS011;18313;48.518;9.124;2023-06-05T12:24:11;8.38;;;3.45;;
31734;SDS011;18313;48.518;9.124;2023-06-05T12:26:51;6.60;;;3.35;;
31734;SDS011;18313;48.518;9.124;2023-06-05T12:29:26;6.90;;;3.50;;
31734;SDS011;18313;48.518;9.124;2023-06-05T12:31:56;7.25;;;3.47;;
31734;SDS011;18313;48.518;9.124;2023-06-05T12:37:27;6.30;;;3.42;;
31734;SDS011;18313;48.518;9.124;2023-06-05T12:39:59;4.65;;;3.47;;
31734;SDS011;18313;48.518;9.124;2023-06-05T12:42:27;7.55;;;3.63;;
31734;SDS011;18313;48.518;9.124;2023-06-05T12:44:54;4.82;;;3.40;;
31734;SDS011;18313;48.518;9.124;2023-06-05T12:47:21;7.65;;;3.28;;
31734;SDS011;18313;48.518;9.124;2023-06-05T12:49:49;5.35;;;3.72;;
31734;SDS011;18313;48.518;9.124;2023-06-05T12:52:16;7.35;;;3.55;;
31734;SDS011;18313;48.518;9.124;2023-06-05T12:54:45;8.27;;;3.80;;
31734;SDS011;18313;48.518;9.124;2023-06-05T12:57:12;9.25;;;3.70;;
31734;SDS011;18313;48.518;9.124;2023-06-05T12:59:39;12.32;;;3.80;;
31734;SDS011;18313;48.518;9.124;2023-06-05T13:02:06;9.70;;;4.15;;
31734;SDS011;18313;48.518;9.124;2023-06-05T13:04:34;5.75;;;3.67;;
31734;SDS011;18313;48.518;9.124;2023-06-05T13:07:02;6.10;;;3.40;;
31734;SDS011;18313;48.518;9.124;2023-06-05T13:09:30;6.78;;;3.78;;
31734;SDS011;18313;48.518;9.124;2023-06-05T13:11:58;6.68;;;4.10;;
31734;SDS011;18313;48.518;9.124;2023-06-05T13:14:26;6.03;;;3.60;;
31734;SDS011;18313;48.518;9.124;2023-06-05T13:16:53;5.30;;;3.55;;
31734;SDS011;18313;48.518;9.124;2023-06-05T13:19:20;7.45;;;3.60;;
31734;SDS011;18313;48.518;9.124;2023-06-05T13:21:48;4.75;;;3.05;;
31734;SDS011;18313;48.518;9.124;2023-06-05T13:24:15;11.07;;;3.85;;
31734;SDS011;18313;48.518;9.124;2023-06-05T13:26:42;7.25;;;3.55;;
31734;SDS011;18313;48.518;9.124;2023-06-05T13:29:10;23.10;;;4.30;;
31734;SDS011;18313;48.518;9.124;2023-06-05T13:31:37;8.10;;;3.50;;
31734;SDS011;18313;48.518;9.124;2023-06-05T13:34:05;6.40;;;3.50;;
31734;SDS011;18313;48.518;9.124;2023-06-05T13:36:32;6.53;;;3.35;;
31734;SDS011;18313;48.518;9.124;2023-06-05T13:39:00;5.70;;;3.30;;
31734;SDS011;18313;48.518;9.124;2023-06-05T13:41:27;6.78;;;3.47;;
31734;SDS011;18313;48.518;9.124;2023-06-05T13:43:54;7.13;;;3.65;;
31734;SDS011;18313;48.518;9.124;2023-06-05T13:46:24;7.15;;;3.28;;
31734;SDS011;18313;48.518;9.124;2023-06-05T13:48:54;8.68;;;3.67;;
31734;SDS011;18313;48.518;9.124;2023-06-05T13:51:23;10.32;;;3.35;;
31734;SDS011;18313;48.518;9.124;2023-06-05T13:53:50;7.22;;;3.45;;
31734;SDS011;18313;48.518;9.124;2023-06-05T13:56:17;7.88;;;3.17;;
31734;SDS011;18313;48.518;9.124;2023-06-05T13:58:44;7.10;;;3.72;;
31734;SDS011;18313;48.518;9.124;2023-06-05T14:01:11;8.45;;;3.75;;
31734;SDS011;18313;48.518;9.124;2023-06-05T14:03:38;7.68;;;3.63;;
31734;SDS011;18313;48.518;9.124;2023-06-05T14:06:05;6.78;;;3.58;;
31734;SDS011;18313;48.518;9.124;2023-06-05T14:08:33;6.15;;;3.20;;
31734;SDS011;18313;48.518;9.124;2023-06-05T14:11:00;5.63;;;3.45;;
31734;SDS011;18313;48.518;9.124;2023-06-05T14:13:27;5.75;;;3.20;;
31734;SDS011;18313;48.518;9.124;2023-06-05T14:15:54;5.90;;;3.30;;
31734;SDS011;18313;48.518;9.124;2023-06-05T14:18:24;7.38;;;3.40;;
31734;SDS011;18313;48.518;9.124;2023-06-05T14:20:52;10.50;;;3.55;;
31734;SDS011;18313;48.518;9.124;2023-06-05T14:23:19;7.28;;;3.25;;
31734;SDS011;18313;48.518;9.124;2023-06-05T14:25:49;5.63;;;3.50;;
31734;SDS011;18313;48.518;9.124;2023-06-05T14:28:17;5.97;;;3.50;;
31734;SDS011;18313;48.518;9.124;2023-06-05T14:30:45;6.00;;;3.60;;
31734;SDS011;18313;48.518;9.124;2023-06-05T14:33:12;5.50;;;3.33;;
31734;SDS011;18313;48.518;9.124;2023-06-05T14:35:40;5.65;;;3.35;;
31734;SDS011;18313;48.518;9.124;2023-06-05T14:38:07;5.75;;;3.30;;
31734;SDS011;18313;48.518;9.124;2023-06-05T14:40:33;4.82;;;3.10;;
31734;SDS011;18313;48.518;9.124;2023-06-05T14:43:00;4.38;;;2.97;;
31734;SDS011;18313;48.518;9.124;2023-06-05T14:45:27;9.70;;;3.40;;
31734;SDS011;18313;48.518;9.124;2023-06-05T14:47:54;8.18;;;3.35;;
31734;SDS011;18313;48.518;9.124;2023-06-05T14:50:21;5.63;;;3.20;;
31734;SDS011;18313;48.518;9.124;2023-06-05T14:52:48;11.30;;;3.70;;
31734;SDS011;18313;48.518;9.124;2023-06-05T14:55:15;5.20;;;3.15;;
31734;SDS011;18313;48.518;9.124;2023-06-05T14:57:42;5.95;;;3.33;;
31734;SDS011;18313;48.518;9.124;2023-06-05T15:00:10;7.57;;;3.67;;
31734;SDS011;18313;48.518;9.124;2023-06-05T15:02:37;6.32;;;3.55;;
31734;SDS011;18313;48.518;9.124;2023-06-05T15:05:05;7.88;;;3.58;;
31734;SDS011;18313;48.518;9.124;2023-06-05T15:07:36;6.00;;;3.47;;
31734;SDS011;18313;48.518;9.124;2023-06-05T15:10:05;5.47;;;3.17;;
31734;SDS011;18313;48.518;9.124;2023-06-05T15:12:35;7.93;;;3.55;;
31734;SDS011;18313;48.518;9.124;2023-06-05T15:15:02;5.15;;;3.40;;
31734;SDS011;18313;48.518;9.124;2023-06-05T15:17:33;9.30;;;3.70;;
31734;SDS011;18313;48.518;9.124;2023-06-05T15:20:00;5.85;;;3.40;;
31734;SDS011;18313;48.518;9.124;2023-06-05T15:22:30;5.85;;;3.80;;
31734;SDS011;18313;48.518;9.124;2023-06-05T15:24:57;6.40;;;3.70;;
31734;SDS011;18313;48.518;9.124;2023-06-05T15:27:23;5.70;;;3.40;;
31734;SDS011;18313;48.518;9.124;2023-06-05T15:29:50;9.13;;;3.70;;
31734;SDS011;18313;48.518;9.124;2023-06-05T15:32:17;8.40;;;3.70;;
31734;SDS011;18313;48.518;9.124;2023-06-05T15:34:46;10.52;;;4.10;;
31734;SDS011;18313;48.518;9.124;2023-06-05T15:37:13;11.88;;;3.70;;